This is the latest recevied weather packets stored in our database for station/object 9W2YIE-13. If no packets are shown the sender has not sent any weather packets the latest 10 day(s).
| Time | Temp. | Humidity | Pressure | Rain* | Wind** | Luminosity | Snow |
|---|---|---|---|---|---|---|---|
| 1787853936 | 40.56° C | 38% | 1009 hPa | - | - | 0 W/m² | - |
| 1787853005 | 38.89° C | 41% | 1009 hPa | - | - | 0 W/m² | - |
| 1787852072 | 40° C | 39% | 1009 hPa | - | - | 0 W/m² | - |
| 1787851140 | 40° C | 39% | 1009 hPa | - | - | 0 W/m² | - |
| 1787850195 | 38.89° C | 40% | 1009 hPa | - | - | 0 W/m² | - |
| 1787849266 | 38.33° C | 41% | 1010 hPa | - | - | 0 W/m² | - |
| 1787848324 | 40.56° C | 38% | 1009 hPa | - | - | 0 W/m² | - |
| 1787847392 | 40° C | 38% | 1009 hPa | - | - | 0 W/m² | - |
| 1787845597 | 41.11° C | 37% | 1009 hPa | - | - | 0 W/m² | - |
| 1787841511 | 41.11° C | 36% | 1008 hPa | - | - | 0 W/m² | - |
| 1787840533 | 40° C | 38% | 1008 hPa | - | - | 0 W/m² | - |
| 1787839588 | 40° C | 38% | 1008 hPa | - | - | 0 W/m² | - |
| 1787838611 | 41.11° C | 36% | 1008 hPa | - | - | 0 W/m² | - |
| 1787837559 | 38.33° C | 40% | 1008 hPa | - | - | 0 W/m² | - |
| 1787836561 | 40.56° C | 36% | 1007 hPa | - | - | 0 W/m² | - |
| 1787835593 | 40.56° C | 37% | 1007 hPa | - | - | 0 W/m² | - |
| 1787834613 | 40° C | 37% | 1007 hPa | - | - | 0 W/m² | - |
| 1787833339 | 42.22° C | 33% | 1006 hPa | - | - | 0 W/m² | - |
| 1787832390 | 42.78° C | 34% | 1006 hPa | - | - | 0 W/m² | - |
| 1787831452 | 42.78° C | 34% | 1006 hPa | - | - | 0 W/m² | - |
| 1787830478 | 41.67° C | 35% | 1006 hPa | - | - | 0 W/m² | - |
| 1787829078 | 42.22° C | 35% | 1005 hPa | - | - | 0 W/m² | - |
| 1787828085 | 40° C | 39% | 1005 hPa | - | - | 0 W/m² | - |
| 1787827122 | 42.78° C | 37% | 1006 hPa | - | - | 0 W/m² | - |
| 1787826134 | 41.11° C | 41% | 1006 hPa | - | - | 0 W/m² | - |
* Rain since midnight (hover to see other rain measurements)
** Current wind speed in m/s (hover to see current wind gust speed)